sensor_id;sensor_type;location;lat;lon;timestamp;P1;durP1;ratioP1;P2;durP2;ratioP2
76194;SDS011;64964;48.694;21.206;2023-04-16T00:01:13;15.57;;;6.93;;
76194;SDS011;64964;48.694;21.206;2023-04-16T00:03:38;18.00;;;7.47;;
76194;SDS011;64964;48.694;21.206;2023-04-16T00:06:04;17.80;;;7.27;;
76194;SDS011;64964;48.694;21.206;2023-04-16T00:08:29;20.50;;;9.00;;
76194;SDS011;64964;48.694;21.206;2023-04-16T00:10:55;18.80;;;8.27;;
76194;SDS011;64964;48.694;21.206;2023-04-16T00:13:20;21.97;;;8.30;;
76194;SDS011;64964;48.694;21.206;2023-04-16T00:15:46;19.15;;;8.40;;
76194;SDS011;64964;48.694;21.206;2023-04-16T00:18:12;21.93;;;9.10;;
76194;SDS011;64964;48.694;21.206;2023-04-16T00:20:37;20.87;;;9.07;;
76194;SDS011;64964;48.694;21.206;2023-04-16T00:23:03;25.43;;;10.00;;
76194;SDS011;64964;48.694;21.206;2023-04-16T00:25:28;25.83;;;10.90;;
76194;SDS011;64964;48.694;21.206;2023-04-16T00:27:53;26.73;;;10.57;;
76194;SDS011;64964;48.694;21.206;2023-04-16T00:30:19;26.67;;;10.65;;
76194;SDS011;64964;48.694;21.206;2023-04-16T00:32:45;26.67;;;10.47;;
76194;SDS011;64964;48.694;21.206;2023-04-16T00:35:10;23.43;;;9.87;;
76194;SDS011;64964;48.694;21.206;2023-04-16T00:37:35;22.57;;;10.07;;
76194;SDS011;64964;48.694;21.206;2023-04-16T00:40:01;26.90;;;10.27;;
76194;SDS011;64964;48.694;21.206;2023-04-16T00:42:26;28.10;;;10.87;;
76194;SDS011;64964;48.694;21.206;2023-04-16T00:44:52;25.73;;;9.90;;
76194;SDS011;64964;48.694;21.206;2023-04-16T00:47:18;25.90;;;11.10;;
76194;SDS011;64964;48.694;21.206;2023-04-16T00:49:44;23.00;;;10.43;;
76194;SDS011;64964;48.694;21.206;2023-04-16T00:52:10;26.08;;;10.30;;
76194;SDS011;64964;48.694;21.206;2023-04-16T00:54:36;25.90;;;10.60;;
76194;SDS011;64964;48.694;21.206;2023-04-16T00:57:01;27.40;;;10.00;;
76194;SDS011;64964;48.694;21.206;2023-04-16T00:59:27;24.33;;;9.40;;
76194;SDS011;64964;48.694;21.206;2023-04-16T01:01:53;21.67;;;9.57;;
76194;SDS011;64964;48.694;21.206;2023-04-16T01:04:19;24.87;;;9.73;;
76194;SDS011;64964;48.694;21.206;2023-04-16T01:06:44;23.27;;;8.75;;
76194;SDS011;64964;48.694;21.206;2023-04-16T01:09:10;23.67;;;9.67;;
76194;SDS011;64964;48.694;21.206;2023-04-16T01:11:38;27.02;;;9.32;;
76194;SDS011;64964;48.694;21.206;2023-04-16T01:14:03;18.10;;;7.07;;
76194;SDS011;64964;48.694;21.206;2023-04-16T01:16:29;11.87;;;6.00;;
76194;SDS011;64964;48.694;21.206;2023-04-16T01:18:54;15.02;;;5.93;;
76194;SDS011;64964;48.694;21.206;2023-04-16T01:21:20;13.80;;;5.77;;
76194;SDS011;64964;48.694;21.206;2023-04-16T01:23:45;11.60;;;5.40;;
76194;SDS011;64964;48.694;21.206;2023-04-16T01:26:11;14.50;;;5.63;;
76194;SDS011;64964;48.694;21.206;2023-04-16T01:28:36;12.00;;;5.07;;
76194;SDS011;64964;48.694;21.206;2023-04-16T01:31:01;12.87;;;5.57;;
76194;SDS011;64964;48.694;21.206;2023-04-16T01:33:27;10.17;;;4.87;;
76194;SDS011;64964;48.694;21.206;2023-04-16T01:35:52;11.93;;;5.45;;
76194;SDS011;64964;48.694;21.206;2023-04-16T01:38:18;11.23;;;5.03;;
76194;SDS011;64964;48.694;21.206;2023-04-16T01:40:43;9.10;;;4.80;;
76194;SDS011;64964;48.694;21.206;2023-04-16T01:43:08;8.10;;;4.40;;
76194;SDS011;64964;48.694;21.206;2023-04-16T01:45:34;11.90;;;4.57;;
76194;SDS011;64964;48.694;21.206;2023-04-16T01:47:59;6.90;;;4.17;;
76194;SDS011;64964;48.694;21.206;2023-04-16T01:50:25;6.00;;;3.57;;
76194;SDS011;64964;48.694;21.206;2023-04-16T01:52:51;8.50;;;4.35;;
76194;SDS011;64964;48.694;21.206;2023-04-16T01:55:16;6.93;;;3.87;;
76194;SDS011;64964;48.694;21.206;2023-04-16T01:57:42;8.57;;;3.63;;
76194;SDS011;64964;48.694;21.206;2023-04-16T02:00:07;10.10;;;4.17;;
76194;SDS011;64964;48.694;21.206;2023-04-16T02:02:33;5.03;;;3.43;;
76194;SDS011;64964;48.694;21.206;2023-04-16T02:05:00;6.65;;;3.42;;
76194;SDS011;64964;48.694;21.206;2023-04-16T02:07:26;7.30;;;3.70;;
76194;SDS011;64964;48.694;21.206;2023-04-16T02:09:51;7.37;;;3.40;;
76194;SDS011;64964;48.694;21.206;2023-04-16T02:12:17;7.65;;;3.60;;
76194;SDS011;64964;48.694;21.206;2023-04-16T02:14:42;3.40;;;2.70;;
76194;SDS011;64964;48.694;21.206;2023-04-16T02:17:08;4.68;;;3.10;;
76194;SDS011;64964;48.694;21.206;2023-04-16T02:19:33;8.37;;;3.10;;
76194;SDS011;64964;48.694;21.206;2023-04-16T02:21:59;5.40;;;2.70;;
76194;SDS011;64964;48.694;21.206;2023-04-16T02:24:25;5.78;;;2.90;;
76194;SDS011;64964;48.694;21.206;2023-04-16T02:26:51;4.55;;;2.38;;
76194;SDS011;64964;48.694;21.206;2023-04-16T02:29:16;4.57;;;2.47;;
76194;SDS011;64964;48.694;21.206;2023-04-16T02:31:42;4.70;;;2.77;;
76194;SDS011;64964;48.694;21.206;2023-04-16T02:34:08;3.80;;;2.70;;
76194;SDS011;64964;48.694;21.206;2023-04-16T02:36:33;3.43;;;2.40;;
76194;SDS011;64964;48.694;21.206;2023-04-16T02:38:59;3.33;;;2.55;;
76194;SDS011;64964;48.694;21.206;2023-04-16T02:41:24;3.50;;;2.60;;
76194;SDS011;64964;48.694;21.206;2023-04-16T02:43:50;4.43;;;2.60;;
76194;SDS011;64964;48.694;21.206;2023-04-16T02:46:15;4.80;;;2.40;;
76194;SDS011;64964;48.694;21.206;2023-04-16T02:48:41;4.47;;;2.53;;
76194;SDS011;64964;48.694;21.206;2023-04-16T02:51:06;4.57;;;2.33;;
76194;SDS011;64964;48.694;21.206;2023-04-16T02:53:32;3.07;;;2.30;;
76194;SDS011;64964;48.694;21.206;2023-04-16T02:55:58;3.95;;;2.55;;
76194;SDS011;64964;48.694;21.206;2023-04-16T02:58:24;3.33;;;2.80;;
76194;SDS011;64964;48.694;21.206;2023-04-16T03:00:53;4.13;;;2.75;;
76194;SDS011;64964;48.694;21.206;2023-04-16T03:03:19;4.40;;;2.83;;
76194;SDS011;64964;48.694;21.206;2023-04-16T03:05:45;3.05;;;2.60;;
76194;SDS011;64964;48.694;21.206;2023-04-16T03:08:11;2.47;;;2.03;;
76194;SDS011;64964;48.694;21.206;2023-04-16T03:10:37;3.47;;;2.30;;
76194;SDS011;64964;48.694;21.206;2023-04-16T03:13:02;2.40;;;2.20;;
76194;SDS011;64964;48.694;21.206;2023-04-16T03:15:28;2.20;;;2.00;;
76194;SDS011;64964;48.694;21.206;2023-04-16T03:17:53;2.70;;;1.98;;
76194;SDS011;64964;48.694;21.206;2023-04-16T03:20:19;2.03;;;1.80;;
76194;SDS011;64964;48.694;21.206;2023-04-16T03:22:45;3.23;;;2.10;;
76194;SDS011;64964;48.694;21.206;2023-04-16T03:25:11;2.50;;;2.08;;
76194;SDS011;64964;48.694;21.206;2023-04-16T03:27:37;3.77;;;2.30;;
76194;SDS011;64964;48.694;21.206;2023-04-16T03:30:06;2.78;;;1.90;;
76194;SDS011;64964;48.694;21.206;2023-04-16T03:32:32;2.30;;;2.10;;
76194;SDS011;64964;48.694;21.206;2023-04-16T03:34:57;2.40;;;2.00;;
76194;SDS011;64964;48.694;21.206;2023-04-16T03:37:23;3.33;;;1.97;;
76194;SDS011;64964;48.694;21.206;2023-04-16T03:39:48;3.00;;;1.90;;
76194;SDS011;64964;48.694;21.206;2023-04-16T03:42:13;2.27;;;1.80;;
76194;SDS011;64964;48.694;21.206;2023-04-16T03:44:39;3.50;;;2.27;;
76194;SDS011;64964;48.694;21.206;2023-04-16T03:47:04;1.98;;;1.70;;
76194;SDS011;64964;48.694;21.206;2023-04-16T03:49:30;2.67;;;1.87;;
76194;SDS011;64964;48.694;21.206;2023-04-16T03:51:55;5.23;;;2.10;;
76194;SDS011;64964;48.694;21.206;2023-04-16T03:54:20;2.67;;;1.90;;
76194;SDS011;64964;48.694;21.206;2023-04-16T03:56:46;2.23;;;1.90;;
76194;SDS011;64964;48.694;21.206;2023-04-16T03:59:11;2.22;;;1.60;;
76194;SDS011;64964;48.694;21.206;2023-04-16T04:01:36;2.37;;;1.83;;
76194;SDS011;64964;48.694;21.206;2023-04-16T04:04:02;2.00;;;1.70;;
76194;SDS011;64964;48.694;21.206;2023-04-16T04:06:27;2.60;;;1.67;;
76194;SDS011;64964;48.694;21.206;2023-04-16T04:08:52;3.33;;;1.90;;
76194;SDS011;64964;48.694;21.206;2023-04-16T04:11:18;3.70;;;1.80;;
76194;SDS011;64964;48.694;21.206;2023-04-16T04:13:43;1.77;;;1.50;;
76194;SDS011;64964;48.694;21.206;2023-04-16T04:16:09;2.10;;;1.80;;
76194;SDS011;64964;48.694;21.206;2023-04-16T04:18:34;2.30;;;1.55;;
76194;SDS011;64964;48.694;21.206;2023-04-16T04:21:03;1.97;;;1.70;;
76194;SDS011;64964;48.694;21.206;2023-04-16T04:23:32;2.50;;;1.60;;
76194;SDS011;64964;48.694;21.206;2023-04-16T04:25:58;2.70;;;1.70;;
76194;SDS011;64964;48.694;21.206;2023-04-16T04:28:23;3.35;;;1.80;;
76194;SDS011;64964;48.694;21.206;2023-04-16T04:30:49;1.90;;;1.50;;
76194;SDS011;64964;48.694;21.206;2023-04-16T04:33:14;1.60;;;1.50;;
76194;SDS011;64964;48.694;21.206;2023-04-16T04:35:39;2.00;;;1.80;;
76194;SDS011;64964;48.694;21.206;2023-04-16T04:38:05;1.77;;;1.50;;
76194;SDS011;64964;48.694;21.206;2023-04-16T04:40:30;1.63;;;1.40;;
76194;SDS011;64964;48.694;21.206;2023-04-16T04:42:56;1.90;;;1.60;;
76194;SDS011;64964;48.694;21.206;2023-04-16T04:45:21;1.63;;;1.43;;
76194;SDS011;64964;48.694;21.206;2023-04-16T04:47:50;1.40;;;1.30;;
76194;SDS011;64964;48.694;21.206;2023-04-16T04:50:19;1.60;;;1.40;;
76194;SDS011;64964;48.694;21.206;2023-04-16T04:52:45;1.50;;;1.40;;
76194;SDS011;64964;48.694;21.206;2023-04-16T04:55:11;1.30;;;1.20;;
76194;SDS011;64964;48.694;21.206;2023-04-16T04:57:38;1.48;;;1.38;;
76194;SDS011;64964;48.694;21.206;2023-04-16T05:00:03;1.73;;;1.20;;
76194;SDS011;64964;48.694;21.206;2023-04-16T05:02:29;2.38;;;1.60;;
76194;SDS011;64964;48.694;21.206;2023-04-16T05:04:54;3.13;;;1.50;;
76194;SDS011;64964;48.694;21.206;2023-04-16T05:07:20;1.90;;;1.40;;
76194;SDS011;64964;48.694;21.206;2023-04-16T05:09:45;2.10;;;1.50;;
76194;SDS011;64964;48.694;21.206;2023-04-16T05:12:11;1.60;;;1.20;;
76194;SDS011;64964;48.694;21.206;2023-04-16T05:14:36;1.83;;;1.47;;
76194;SDS011;64964;48.694;21.206;2023-04-16T05:17:01;1.90;;;1.40;;
76194;SDS011;64964;48.694;21.206;2023-04-16T05:19:27;1.50;;;1.40;;
76194;SDS011;64964;48.694;21.206;2023-04-16T05:21:53;2.40;;;1.67;;
76194;SDS011;64964;48.694;21.206;2023-04-16T05:24:18;1.70;;;1.50;;
76194;SDS011;64964;48.694;21.206;2023-04-16T05:26:43;3.17;;;1.50;;
76194;SDS011;64964;48.694;21.206;2023-04-16T05:29:09;1.83;;;1.60;;
76194;SDS011;64964;48.694;21.206;2023-04-16T05:31:34;3.30;;;1.70;;
76194;SDS011;64964;48.694;21.206;2023-04-16T05:34:00;3.53;;;1.90;;
76194;SDS011;64964;48.694;21.206;2023-04-16T05:36:25;2.90;;;2.10;;
76194;SDS011;64964;48.694;21.206;2023-04-16T05:38:50;3.20;;;2.23;;
76194;SDS011;64964;48.694;21.206;2023-04-16T05:41:16;3.13;;;2.20;;
76194;SDS011;64964;48.694;21.206;2023-04-16T05:43:41;3.10;;;2.10;;
76194;SDS011;64964;48.694;21.206;2023-04-16T05:46:06;2.10;;;1.70;;
76194;SDS011;64964;48.694;21.206;2023-04-16T05:48:32;2.47;;;1.70;;
76194;SDS011;64964;48.694;21.206;2023-04-16T05:50:57;4.80;;;1.60;;
76194;SDS011;64964;48.694;21.206;2023-04-16T05:53:22;3.70;;;2.07;;
76194;SDS011;64964;48.694;21.206;2023-04-16T05:55:48;2.58;;;1.80;;
76194;SDS011;64964;48.694;21.206;2023-04-16T05:58:13;2.37;;;1.70;;
76194;SDS011;64964;48.694;21.206;2023-04-16T06:00:38;3.63;;;1.77;;
76194;SDS011;64964;48.694;21.206;2023-04-16T06:03:04;1.70;;;1.48;;
76194;SDS011;64964;48.694;21.206;2023-04-16T06:05:30;2.10;;;1.67;;
76194;SDS011;64964;48.694;21.206;2023-04-16T06:07:55;3.10;;;1.50;;
76194;SDS011;64964;48.694;21.206;2023-04-16T06:10:20;2.63;;;1.70;;
76194;SDS011;64964;48.694;21.206;2023-04-16T06:12:46;3.70;;;1.80;;
76194;SDS011;64964;48.694;21.206;2023-04-16T06:15:11;1.97;;;1.77;;
76194;SDS011;64964;48.694;21.206;2023-04-16T06:17:37;2.83;;;1.90;;
76194;SDS011;64964;48.694;21.206;2023-04-16T06:20:02;2.45;;;1.70;;
76194;SDS011;64964;48.694;21.206;2023-04-16T06:22:28;2.83;;;1.90;;
76194;SDS011;64964;48.694;21.206;2023-04-16T06:24:54;2.10;;;1.90;;
76194;SDS011;64964;48.694;21.206;2023-04-16T06:27:19;2.17;;;1.97;;
76194;SDS011;64964;48.694;21.206;2023-04-16T06:29:45;2.37;;;1.80;;
76194;SDS011;64964;48.694;21.206;2023-04-16T06:32:10;2.60;;;1.90;;
76194;SDS011;64964;48.694;21.206;2023-04-16T06:34:36;3.08;;;1.90;;
76194;SDS011;64964;48.694;21.206;2023-04-16T06:37:02;2.42;;;1.98;;
76194;SDS011;64964;48.694;21.206;2023-04-16T06:39:27;1.73;;;1.60;;
76194;SDS011;64964;48.694;21.206;2023-04-16T06:41:53;2.30;;;1.70;;
76194;SDS011;64964;48.694;21.206;2023-04-16T06:44:18;2.15;;;1.80;;
76194;SDS011;64964;48.694;21.206;2023-04-16T06:46:43;4.80;;;1.60;;
76194;SDS011;64964;48.694;21.206;2023-04-16T06:49:09;2.23;;;1.67;;
76194;SDS011;64964;48.694;21.206;2023-04-16T06:51:34;1.80;;;1.60;;
76194;SDS011;64964;48.694;21.206;2023-04-16T06:54:00;1.97;;;1.60;;
76194;SDS011;64964;48.694;21.206;2023-04-16T06:56:25;2.30;;;1.50;;
76194;SDS011;64964;48.694;21.206;2023-04-16T06:58:50;1.77;;;1.67;;
76194;SDS011;64964;48.694;21.206;2023-04-16T07:01:16;2.80;;;1.60;;
76194;SDS011;64964;48.694;21.206;2023-04-16T07:03:42;2.70;;;2.00;;
76194;SDS011;64964;48.694;21.206;2023-04-16T07:06:08;2.20;;;1.70;;
76194;SDS011;64964;48.694;21.206;2023-04-16T07:08:33;2.60;;;2.10;;
76194;SDS011;64964;48.694;21.206;2023-04-16T07:10:59;3.53;;;1.97;;
76194;SDS011;64964;48.694;21.206;2023-04-16T07:13:24;2.40;;;2.00;;
76194;SDS011;64964;48.694;21.206;2023-04-16T07:15:50;2.23;;;2.00;;
76194;SDS011;64964;48.694;21.206;2023-04-16T07:18:15;3.00;;;1.90;;
76194;SDS011;64964;48.694;21.206;2023-04-16T07:20:41;2.92;;;1.77;;
76194;SDS011;64964;48.694;21.206;2023-04-16T07:23:06;2.77;;;2.10;;
76194;SDS011;64964;48.694;21.206;2023-04-16T07:25:31;1.97;;;1.70;;
76194;SDS011;64964;48.694;21.206;2023-04-16T07:27:57;3.00;;;2.10;;
76194;SDS011;64964;48.694;21.206;2023-04-16T07:30:22;2.63;;;1.80;;
76194;SDS011;64964;48.694;21.206;2023-04-16T07:32:48;2.93;;;1.90;;
76194;SDS011;64964;48.694;21.206;2023-04-16T07:35:13;3.30;;;1.67;;
76194;SDS011;64964;48.694;21.206;2023-04-16T07:37:38;2.83;;;1.50;;
76194;SDS011;64964;48.694;21.206;2023-04-16T07:40:04;1.95;;;1.63;;
76194;SDS011;64964;48.694;21.206;2023-04-16T07:42:30;2.47;;;1.80;;
76194;SDS011;64964;48.694;21.206;2023-04-16T07:44:55;2.10;;;1.90;;
76194;SDS011;64964;48.694;21.206;2023-04-16T07:47:21;1.67;;;1.57;;
76194;SDS011;64964;48.694;21.206;2023-04-16T07:49:50;2.05;;;1.65;;
76194;SDS011;64964;48.694;21.206;2023-04-16T07:52:16;1.80;;;1.70;;
76194;SDS011;64964;48.694;21.206;2023-04-16T07:54:41;2.10;;;1.60;;
76194;SDS011;64964;48.694;21.206;2023-04-16T07:57:06;3.73;;;1.50;;
76194;SDS011;64964;48.694;21.206;2023-04-16T07:59:32;2.22;;;1.83;;
76194;SDS011;64964;48.694;21.206;2023-04-16T08:01:57;1.50;;;1.40;;
76194;SDS011;64964;48.694;21.206;2023-04-16T08:04:22;1.80;;;1.60;;
76194;SDS011;64964;48.694;21.206;2023-04-16T08:06:51;2.80;;;1.70;;
76194;SDS011;64964;48.694;21.206;2023-04-16T08:09:17;1.70;;;1.60;;
76194;SDS011;64964;48.694;21.206;2023-04-16T08:11:43;2.13;;;1.67;;
76194;SDS011;64964;48.694;21.206;2023-04-16T08:14:09;2.87;;;1.50;;
76194;SDS011;64964;48.694;21.206;2023-04-16T08:16:34;1.70;;;1.50;;
76194;SDS011;64964;48.694;21.206;2023-04-16T08:18:59;1.60;;;1.40;;
76194;SDS011;64964;48.694;21.206;2023-04-16T08:21:26;3.03;;;1.70;;
76194;SDS011;64964;48.694;21.206;2023-04-16T08:23:52;1.63;;;1.52;;
76194;SDS011;64964;48.694;21.206;2023-04-16T08:26:18;1.98;;;1.50;;
76194;SDS011;64964;48.694;21.206;2023-04-16T08:28:43;2.87;;;1.47;;
76194;SDS011;64964;48.694;21.206;2023-04-16T08:31:08;1.83;;;1.30;;
76194;SDS011;64964;48.694;21.206;2023-04-16T08:33:34;2.22;;;1.30;;
76194;SDS011;64964;48.694;21.206;2023-04-16T18:01:53;3.23;;;2.50;;
76194;SDS011;64964;48.694;21.206;2023-04-16T18:04:20;2.63;;;2.23;;
76194;SDS011;64964;48.694;21.206;2023-04-16T18:06:45;2.55;;;2.35;;
76194;SDS011;64964;48.694;21.206;2023-04-16T18:09:10;3.30;;;2.30;;
76194;SDS011;64964;48.694;21.206;2023-04-16T18:11:36;3.03;;;2.40;;
76194;SDS011;64964;48.694;21.206;2023-04-16T18:14:01;4.60;;;2.47;;
76194;SDS011;64964;48.694;21.206;2023-04-16T18:16:26;2.63;;;2.10;;
76194;SDS011;64964;48.694;21.206;2023-04-16T18:18:52;2.40;;;2.20;;
76194;SDS011;64964;48.694;21.206;2023-04-16T18:21:17;2.73;;;2.30;;
76194;SDS011;64964;48.694;21.206;2023-04-16T18:23:42;2.70;;;2.30;;
76194;SDS011;64964;48.694;21.206;2023-04-16T18:26:08;2.40;;;2.20;;
76194;SDS011;64964;48.694;21.206;2023-04-16T18:28:33;3.35;;;2.20;;
76194;SDS011;64964;48.694;21.206;2023-04-16T18:30:58;2.37;;;2.17;;
76194;SDS011;64964;48.694;21.206;2023-04-16T18:33:29;2.95;;;2.13;;
76194;SDS011;64964;48.694;21.206;2023-04-16T18:35:55;2.60;;;2.30;;
76194;SDS011;64964;48.694;21.206;2023-04-16T18:38:20;3.37;;;2.40;;
76194;SDS011;64964;48.694;21.206;2023-04-16T18:40:45;2.97;;;2.03;;
76194;SDS011;64964;48.694;21.206;2023-04-16T18:43:13;2.27;;;2.07;;
76194;SDS011;64964;48.694;21.206;2023-04-16T18:45:39;5.00;;;2.07;;
76194;SDS011;64964;48.694;21.206;2023-04-16T18:48:04;2.93;;;2.10;;
76194;SDS011;64964;48.694;21.206;2023-04-16T18:50:30;3.05;;;2.33;;
76194;SDS011;64964;48.694;21.206;2023-04-16T18:52:55;2.20;;;2.00;;
76194;SDS011;64964;48.694;21.206;2023-04-16T18:55:21;3.77;;;2.60;;
76194;SDS011;64964;48.694;21.206;2023-04-16T18:57:46;2.90;;;2.47;;
76194;SDS011;64964;48.694;21.206;2023-04-16T19:00:12;3.47;;;2.70;;
76194;SDS011;64964;48.694;21.206;2023-04-16T19:02:39;3.50;;;2.67;;
76194;SDS011;64964;48.694;21.206;2023-04-16T19:05:04;3.70;;;2.40;;
76194;SDS011;64964;48.694;21.206;2023-04-16T19:07:30;2.97;;;2.42;;
76194;SDS011;64964;48.694;21.206;2023-04-16T19:09:55;3.20;;;2.57;;
76194;SDS011;64964;48.694;21.206;2023-04-16T19:12:21;4.33;;;2.53;;
76194;SDS011;64964;48.694;21.206;2023-04-16T19:14:46;4.03;;;2.88;;
76194;SDS011;64964;48.694;21.206;2023-04-16T19:17:11;3.27;;;2.77;;
76194;SDS011;64964;48.694;21.206;2023-04-16T19:19:37;3.50;;;2.70;;
76194;SDS011;64964;48.694;21.206;2023-04-16T19:22:02;4.10;;;2.93;;
76194;SDS011;64964;48.694;21.206;2023-04-16T19:24:27;3.47;;;2.85;;
76194;SDS011;64964;48.694;21.206;2023-04-16T19:26:53;5.63;;;3.83;;
76194;SDS011;64964;48.694;21.206;2023-04-16T19:29:18;5.67;;;3.47;;
76194;SDS011;64964;48.694;21.206;2023-04-16T19:31:44;5.43;;;3.47;;
76194;SDS011;64964;48.694;21.206;2023-04-16T19:34:11;5.30;;;3.88;;
76194;SDS011;64964;48.694;21.206;2023-04-16T19:36:37;6.28;;;3.97;;
76194;SDS011;64964;48.694;21.206;2023-04-16T19:39:03;5.40;;;3.73;;
76194;SDS011;64964;48.694;21.206;2023-04-16T19:41:28;5.95;;;4.20;;
76194;SDS011;64964;48.694;21.206;2023-04-16T19:43:54;7.27;;;4.47;;
76194;SDS011;64964;48.694;21.206;2023-04-16T19:46:19;5.60;;;4.23;;
76194;SDS011;64964;48.694;21.206;2023-04-16T19:48:45;5.90;;;4.33;;
76194;SDS011;64964;48.694;21.206;2023-04-16T19:51:11;6.75;;;4.65;;
76194;SDS011;64964;48.694;21.206;2023-04-16T19:53:36;7.80;;;4.83;;
76194;SDS011;64964;48.694;21.206;2023-04-16T19:56:02;8.13;;;4.93;;
76194;SDS011;64964;48.694;21.206;2023-04-16T19:58:27;7.67;;;4.90;;
76194;SDS011;64964;48.694;21.206;2023-04-16T20:00:53;11.13;;;4.83;;
76194;SDS011;64964;48.694;21.206;2023-04-16T20:03:19;9.15;;;4.90;;
76194;SDS011;64964;48.694;21.206;2023-04-16T20:05:46;6.87;;;5.23;;
76194;SDS011;64964;48.694;21.206;2023-04-16T20:08:12;8.20;;;5.55;;
76194;SDS011;64964;48.694;21.206;2023-04-16T20:10:37;8.70;;;5.60;;
76194;SDS011;64964;48.694;21.206;2023-04-16T20:13:03;9.27;;;5.43;;
76194;SDS011;64964;48.694;21.206;2023-04-16T20:15:30;8.17;;;5.60;;
76194;SDS011;64964;48.694;21.206;2023-04-16T20:17:55;7.00;;;5.30;;
76194;SDS011;64964;48.694;21.206;2023-04-16T20:20:21;7.40;;;5.57;;
76194;SDS011;64964;48.694;21.206;2023-04-16T20:22:47;7.97;;;5.28;;
76194;SDS011;64964;48.694;21.206;2023-04-16T20:25:13;9.43;;;5.70;;
76194;SDS011;64964;48.694;21.206;2023-04-16T20:27:38;7.50;;;5.20;;
76194;SDS011;64964;48.694;21.206;2023-04-16T20:30:04;7.47;;;5.10;;
76194;SDS011;64964;48.694;21.206;2023-04-16T20:32:30;8.73;;;5.40;;
76194;SDS011;64964;48.694;21.206;2023-04-16T20:34:55;7.10;;;5.17;;
76194;SDS011;64964;48.694;21.206;2023-04-16T20:37:20;7.57;;;5.03;;
76194;SDS011;64964;48.694;21.206;2023-04-16T20:39:46;6.57;;;5.13;;
76194;SDS011;64964;48.694;21.206;2023-04-16T20:42:14;6.80;;;4.85;;
76194;SDS011;64964;48.694;21.206;2023-04-16T20:44:40;7.47;;;5.07;;
76194;SDS011;64964;48.694;21.206;2023-04-16T20:47:08;6.37;;;4.63;;
76194;SDS011;64964;48.694;21.206;2023-04-16T20:49:35;8.80;;;4.88;;
76194;SDS011;64964;48.694;21.206;2023-04-16T20:52:02;7.70;;;5.47;;
76194;SDS011;64964;48.694;21.206;2023-04-16T20:54:29;7.17;;;5.10;;
76194;SDS011;64964;48.694;21.206;2023-04-16T20:56:55;6.75;;;4.93;;
76194;SDS011;64964;48.694;21.206;2023-04-16T20:59:21;5.88;;;4.38;;
76194;SDS011;64964;48.694;21.206;2023-04-16T21:01:46;6.23;;;4.80;;
76194;SDS011;64964;48.694;21.206;2023-04-16T21:04:12;7.93;;;5.07;;
76194;SDS011;64964;48.694;21.206;2023-04-16T21:06:37;8.27;;;4.80;;
76194;SDS011;64964;48.694;21.206;2023-04-16T21:09:07;7.25;;;4.80;;
76194;SDS011;64964;48.694;21.206;2023-04-16T21:11:32;6.65;;;4.78;;
76194;SDS011;64964;48.694;21.206;2023-04-16T21:13:59;5.80;;;4.57;;
76194;SDS011;64964;48.694;21.206;2023-04-16T21:16:25;7.38;;;4.45;;
76194;SDS011;64964;48.694;21.206;2023-04-16T21:18:50;6.20;;;4.60;;
76194;SDS011;64964;48.694;21.206;2023-04-16T21:21:15;7.07;;;4.20;;
76194;SDS011;64964;48.694;21.206;2023-04-16T21:23:41;6.28;;;4.53;;
76194;SDS011;64964;48.694;21.206;2023-04-16T21:26:06;7.17;;;4.37;;
76194;SDS011;64964;48.694;21.206;2023-04-16T21:28:31;5.90;;;4.20;;
76194;SDS011;64964;48.694;21.206;2023-04-16T21:30:57;6.00;;;4.37;;
76194;SDS011;64964;48.694;21.206;2023-04-16T21:33:22;6.47;;;5.03;;
76194;SDS011;64964;48.694;21.206;2023-04-16T21:35:51;6.55;;;4.65;;
76194;SDS011;64964;48.694;21.206;2023-04-16T21:38:17;6.50;;;4.90;;
76194;SDS011;64964;48.694;21.206;2023-04-16T21:40:46;5.90;;;4.23;;
76194;SDS011;64964;48.694;21.206;2023-04-16T21:43:24;6.43;;;4.10;;
76194;SDS011;64964;48.694;21.206;2023-04-16T21:45:54;6.38;;;4.57;;
76194;SDS011;64964;48.694;21.206;2023-04-16T21:48:20;6.83;;;4.20;;
76194;SDS011;64964;48.694;21.206;2023-04-16T21:50:46;6.88;;;4.63;;
76194;SDS011;64964;48.694;21.206;2023-04-16T21:53:12;6.15;;;4.22;;
76194;SDS011;64964;48.694;21.206;2023-04-16T21:55:37;6.40;;;4.30;;
76194;SDS011;64964;48.694;21.206;2023-04-16T21:58:04;6.43;;;4.40;;
76194;SDS011;64964;48.694;21.206;2023-04-16T22:00:30;5.90;;;4.23;;
76194;SDS011;64964;48.694;21.206;2023-04-16T22:02:55;6.67;;;4.17;;
76194;SDS011;64964;48.694;21.206;2023-04-16T22:05:23;5.80;;;4.20;;
76194;SDS011;64964;48.694;21.206;2023-04-16T22:07:49;5.70;;;4.30;;
76194;SDS011;64964;48.694;21.206;2023-04-16T22:10:16;7.78;;;4.90;;
76194;SDS011;64964;48.694;21.206;2023-04-16T22:12:42;6.47;;;4.33;;
76194;SDS011;64964;48.694;21.206;2023-04-16T22:15:11;6.45;;;4.30;;
76194;SDS011;64964;48.694;21.206;2023-04-16T22:17:37;5.82;;;3.88;;
76194;SDS011;64964;48.694;21.206;2023-04-16T22:20:04;6.53;;;4.50;;
76194;SDS011;64964;48.694;21.206;2023-04-16T22:22:32;6.00;;;4.22;;
76194;SDS011;64964;48.694;21.206;2023-04-16T22:24:57;6.30;;;4.53;;
76194;SDS011;64964;48.694;21.206;2023-04-16T22:27:22;6.17;;;4.43;;
76194;SDS011;64964;48.694;21.206;2023-04-16T22:29:48;8.17;;;4.87;;
76194;SDS011;64964;48.694;21.206;2023-04-16T22:32:13;6.43;;;4.30;;
76194;SDS011;64964;48.694;21.206;2023-04-16T22:34:39;7.13;;;3.80;;
76194;SDS011;64964;48.694;21.206;2023-04-16T22:37:04;7.20;;;4.20;;
76194;SDS011;64964;48.694;21.206;2023-04-16T22:39:32;5.63;;;4.13;;
76194;SDS011;64964;48.694;21.206;2023-04-16T22:41:57;10.05;;;4.32;;
76194;SDS011;64964;48.694;21.206;2023-04-16T22:44:23;6.80;;;4.57;;
76194;SDS011;64964;48.694;21.206;2023-04-16T22:46:48;6.07;;;4.10;;
76194;SDS011;64964;48.694;21.206;2023-04-16T22:49:13;6.63;;;4.13;;
76194;SDS011;64964;48.694;21.206;2023-04-16T22:51:39;8.50;;;4.70;;
76194;SDS011;64964;48.694;21.206;2023-04-16T22:54:04;5.95;;;4.00;;
76194;SDS011;64964;48.694;21.206;2023-04-16T22:56:31;6.70;;;4.27;;
76194;SDS011;64964;48.694;21.206;2023-04-16T22:58:56;5.63;;;3.83;;
76194;SDS011;64964;48.694;21.206;2023-04-16T23:01:22;7.47;;;4.70;;
76194;SDS011;64964;48.694;21.206;2023-04-16T23:03:48;6.45;;;4.55;;
76194;SDS011;64964;48.694;21.206;2023-04-16T23:06:13;4.70;;;3.80;;
76194;SDS011;64964;48.694;21.206;2023-04-16T23:08:38;6.73;;;4.37;;
76194;SDS011;64964;48.694;21.206;2023-04-16T23:11:04;6.90;;;4.07;;
76194;SDS011;64964;48.694;21.206;2023-04-16T23:13:29;6.13;;;3.67;;
76194;SDS011;64964;48.694;21.206;2023-04-16T23:15:55;6.67;;;3.83;;
76194;SDS011;64964;48.694;21.206;2023-04-16T23:18:21;6.53;;;4.10;;
76194;SDS011;64964;48.694;21.206;2023-04-16T23:20:49;4.73;;;3.50;;
76194;SDS011;64964;48.694;21.206;2023-04-16T23:23:15;5.57;;;4.10;;
76194;SDS011;64964;48.694;21.206;2023-04-16T23:25:40;7.40;;;4.37;;
76194;SDS011;64964;48.694;21.206;2023-04-16T23:28:06;7.37;;;3.70;;
76194;SDS011;64964;48.694;21.206;2023-04-16T23:30:31;7.03;;;3.90;;
76194;SDS011;64964;48.694;21.206;2023-04-16T23:32:56;6.53;;;3.97;;
76194;SDS011;64964;48.694;21.206;2023-04-16T23:35:22;6.43;;;3.40;;
76194;SDS011;64964;48.694;21.206;2023-04-16T23:37:48;5.77;;;3.90;;
76194;SDS011;64964;48.694;21.206;2023-04-16T23:40:13;5.82;;;4.00;;
76194;SDS011;64964;48.694;21.206;2023-04-16T23:42:39;5.20;;;4.13;;
76194;SDS011;64964;48.694;21.206;2023-04-16T23:45:04;6.47;;;3.90;;
76194;SDS011;64964;48.694;21.206;2023-04-16T23:47:30;5.28;;;3.67;;
76194;SDS011;64964;48.694;21.206;2023-04-16T23:49:56;7.03;;;4.00;;